createdAt,value
2019-04-25T00:00:48.909Z,8.49
2019-04-25T00:02:16.165Z,8.60
2019-04-25T00:03:22.322Z,8.60
2019-04-25T00:04:25.137Z,8.81
2019-04-25T00:05:27.864Z,8.95
2019-04-25T00:06:32.141Z,8.95
2019-04-25T00:07:34.840Z,8.86
2019-04-25T00:08:37.504Z,8.86
2019-04-25T00:09:58.682Z,8.83
2019-04-25T00:11:02.649Z,8.91
2019-04-25T00:12:05.779Z,8.87
2019-04-25T00:13:08.838Z,8.87
2019-04-25T00:14:13.295Z,8.93
2019-04-25T00:15:16.333Z,8.93
2019-04-25T00:16:27.167Z,9.03
2019-04-25T00:17:31.487Z,8.90
2019-04-25T00:18:38.517Z,8.61
2019-04-25T00:19:42.486Z,8.61
2019-04-25T00:20:50.421Z,8.80
2019-04-25T00:22:12.168Z,8.75
2019-04-25T00:23:18.309Z,8.49
2019-04-25T00:24:30.082Z,8.45
2019-04-25T00:25:51.332Z,8.49
2019-04-25T00:26:54.049Z,8.60
2019-04-25T00:27:56.778Z,8.68
2019-04-25T00:28:59.722Z,8.67
2019-04-25T00:30:02.849Z,8.73
2019-04-25T00:31:06.260Z,8.73
2019-04-25T00:32:08.884Z,8.72
2019-04-25T00:33:11.657Z,8.61
2019-04-25T00:34:14.382Z,8.58
2019-04-25T00:35:17.823Z,8.48
2019-04-25T00:36:21.788Z,8.50
2019-04-25T00:37:24.623Z,8.55
2019-04-25T00:38:31.963Z,8.51
2019-04-25T00:39:34.607Z,8.51
2019-04-25T00:40:37.720Z,8.50
2019-04-25T00:41:42.362Z,8.50
2019-04-25T00:42:45.132Z,8.39
2019-04-25T00:43:47.857Z,8.37
2019-04-25T00:44:51.546Z,8.37
2019-04-25T00:45:55.132Z,8.40
2019-04-25T00:46:57.789Z,8.35
2019-04-25T00:48:03.986Z,8.40
2019-04-25T00:49:05.174Z,8.31
2019-04-25T00:50:07.900Z,8.35
2019-04-25T00:51:11.807Z,8.38
2019-04-25T00:52:14.516Z,8.38
2019-04-25T00:53:17.259Z,8.26
2019-04-25T00:54:20.298Z,8.30
2019-04-25T00:55:28.387Z,8.21
2019-04-25T00:56:27.355Z,8.21
2019-04-25T00:57:31.923Z,8.29
2019-04-25T00:58:45.289Z,8.24
2019-04-25T01:00:03.145Z,8.14
2019-04-25T01:01:31.715Z,8.14
2019-04-25T01:02:38.362Z,8.14
2019-04-25T01:03:44.115Z,8.09
2019-04-25T01:04:47.248Z,8.13
2019-04-25T01:05:49.895Z,8.13
2019-04-25T01:06:53.222Z,8.15
2019-04-25T01:07:56.750Z,8.17
2019-04-25T01:08:59.566Z,8.16
2019-04-25T01:10:02.619Z,8.16
2019-04-25T01:11:05.448Z,8.14
2019-04-25T01:12:09.015Z,8.12
2019-04-25T01:13:11.989Z,8.12
2019-04-25T01:14:14.981Z,8.11
2019-04-25T01:15:18.146Z,8.20
2019-04-25T01:16:22.035Z,8.20
2019-04-25T01:17:24.798Z,8.15
2019-04-25T01:18:27.519Z,8.11
2019-04-25T01:19:34.435Z,8.07
2019-04-25T01:20:37.175Z,8.18
2019-04-25T01:21:39.794Z,8.18
2019-04-25T01:22:44.052Z,8.20
2019-04-25T01:23:47.282Z,8.16
2019-04-25T01:24:50.164Z,8.17
2019-04-25T01:25:53.734Z,8.23
2019-04-25T01:27:01.488Z,8.15
2019-04-25T01:28:04.208Z,8.15
2019-04-25T01:29:08.678Z,8.30
2019-04-25T01:30:11.333Z,8.30
2019-04-25T01:31:16.387Z,8.35
2019-04-25T01:32:25.007Z,8.34
2019-04-25T01:33:28.079Z,8.34
2019-04-25T01:34:44.263Z,8.32
2019-04-25T01:36:08.545Z,8.28
2019-04-25T01:37:31.666Z,8.35
2019-04-25T01:38:56.153Z,8.32
2019-04-25T01:40:14.759Z,8.35
2019-04-25T01:41:28.772Z,8.41
2019-04-25T01:42:51.685Z,8.38
2019-04-25T01:44:00.761Z,8.39
2019-04-25T01:45:04.057Z,8.44
2019-04-25T01:46:09.203Z,8.44
2019-04-25T01:47:11.914Z,8.49
2019-04-25T01:48:14.623Z,8.60
2019-04-25T01:49:17.589Z,8.56
2019-04-25T01:50:20.268Z,8.38
2019-04-25T01:51:24.014Z,8.38
2019-04-25T01:52:26.812Z,8.46
2019-04-25T01:53:29.508Z,8.47
2019-04-25T01:54:33.837Z,8.50
2019-04-25T01:55:36.886Z,8.50
2019-04-25T01:56:39.580Z,8.45
2019-04-25T01:57:45.057Z,8.45
2019-04-25T01:58:47.004Z,8.42
2019-04-25T01:59:49.883Z,8.46
2019-04-25T02:00:54.727Z,8.46
2019-04-25T02:01:57.197Z,8.44
2019-04-25T02:02:59.920Z,8.46
2019-04-25T02:04:03.595Z,8.53
2019-04-25T02:05:08.134Z,8.40
2019-04-25T02:06:10.846Z,8.40
2019-04-25T02:07:13.600Z,8.42
2019-04-25T02:08:16.506Z,8.46
2019-04-25T02:09:20.779Z,8.46
2019-04-25T02:10:23.655Z,8.50
2019-04-25T02:11:47.931Z,8.49
2019-04-25T02:12:55.593Z,8.36
2019-04-25T02:13:59.363Z,8.29
2019-04-25T02:15:05.908Z,8.33
2019-04-25T02:16:10.080Z,8.32
2019-04-25T02:17:14.134Z,8.36
2019-04-25T02:18:19.687Z,8.30
2019-04-25T02:19:24.089Z,8.30
2019-04-25T02:20:26.795Z,8.29
2019-04-25T02:21:29.780Z,8.25
2019-04-25T02:22:33.925Z,8.31
2019-04-25T02:23:36.849Z,8.25
2019-04-25T02:24:39.489Z,8.23
2019-04-25T02:25:42.156Z,8.19
2019-04-25T02:26:45.035Z,8.24
2019-04-25T02:27:48.014Z,8.28
2019-04-25T02:28:50.658Z,8.33
2019-04-25T02:29:55.233Z,8.23
2019-04-25T02:31:00.756Z,8.19
2019-04-25T02:32:08.596Z,8.23
2019-04-25T02:33:09.266Z,8.23
2019-04-25T02:34:17.489Z,8.25
2019-04-25T02:35:19.080Z,8.25
2019-04-25T02:36:21.793Z,8.22
2019-04-25T02:37:25.678Z,8.22
2019-04-25T02:38:28.914Z,8.18
2019-04-25T02:39:36.759Z,8.18
2019-04-25T02:40:36.794Z,8.18
2019-04-25T02:41:39.449Z,8.08
2019-04-25T02:42:44.223Z,8.09
2019-04-25T02:43:48.788Z,8.15
2019-04-25T02:45:06.528Z,8.09
2019-04-25T02:46:25.820Z,8.04
2019-04-25T02:47:58.094Z,8.05
2019-04-25T02:49:39.726Z,7.97
2019-04-25T02:51:16.679Z,8.02
2019-04-25T02:52:24.973Z,8.02
2019-04-25T02:53:36.590Z,8.05
2019-04-25T02:54:38.261Z,8.05
2019-04-25T02:55:44.606Z,8.06
2019-04-25T02:56:47.900Z,8.04
2019-04-25T02:57:54.196Z,8.04
2019-04-25T02:59:00.393Z,8.03
2019-04-25T03:00:05.974Z,8.05
2019-04-25T03:01:19.465Z,8.04
2019-04-25T03:02:15.634Z,8.04
2019-04-25T03:03:18.410Z,8.06
2019-04-25T03:04:21.469Z,8.06
2019-04-25T03:05:25.520Z,8.02
2019-04-25T03:06:28.253Z,8.02
2019-04-25T03:07:30.925Z,7.98
2019-04-25T03:08:35.464Z,7.96
2019-04-25T03:09:38.057Z,8.01
2019-04-25T03:10:41.126Z,8.01
2019-04-25T03:11:45.213Z,7.99
2019-04-25T03:12:48.574Z,7.96
2019-04-25T03:13:51.221Z,7.91
2019-04-25T03:14:55.014Z,7.91
2019-04-25T03:16:02.406Z,7.90
2019-04-25T03:17:08.252Z,7.96
2019-04-25T03:18:12.416Z,7.96
2019-04-25T03:19:45.365Z,7.96
2019-04-25T03:21:13.500Z,8.01
2019-04-25T03:22:15.261Z,7.95
2019-04-25T03:23:37.149Z,7.98
2019-04-25T03:24:39.881Z,8.00
2019-04-25T03:25:43.468Z,8.06
2019-04-25T03:26:46.223Z,8.06
2019-04-25T03:27:48.922Z,8.05
2019-04-25T03:28:51.580Z,8.04
2019-04-25T03:29:54.521Z,8.04
2019-04-25T03:30:57.364Z,7.94
2019-04-25T03:32:00.890Z,7.92
2019-04-25T03:33:09.724Z,7.92
2019-04-25T03:34:13.803Z,7.97
2019-04-25T03:35:13.631Z,7.97
2019-04-25T03:36:17.519Z,7.94
2019-04-25T03:37:20.191Z,7.91
2019-04-25T03:38:24.276Z,7.89
2019-04-25T03:39:27.982Z,7.91
2019-04-25T03:40:30.623Z,8.06
2019-04-25T03:41:34.082Z,8.25
2019-04-25T03:42:37.565Z,8.21
2019-04-25T03:43:40.706Z,8.21
2019-04-25T03:44:43.848Z,8.21
2019-04-25T03:45:46.574Z,8.28
2019-04-25T03:46:49.189Z,8.29
2019-04-25T03:47:53.183Z,8.30
2019-04-25T03:48:56.271Z,8.35
2019-04-25T03:49:59.011Z,8.37
2019-04-25T03:51:02.796Z,8.37
2019-04-25T03:52:08.547Z,8.41
2019-04-25T03:53:12.186Z,8.41
2019-04-25T03:54:16.251Z,8.39
2019-04-25T03:55:19.452Z,8.39
2019-04-25T03:56:22.502Z,8.48
2019-04-25T03:57:25.121Z,8.48
2019-04-25T03:58:27.839Z,8.58
2019-04-25T03:59:30.487Z,8.58
2019-04-25T04:00:34.196Z,8.62
2019-04-25T04:01:37.827Z,8.64
2019-04-25T04:02:40.526Z,8.64
2019-04-25T04:03:44.045Z,8.68
2019-04-25T04:04:46.828Z,8.62
2019-04-25T04:05:49.562Z,8.56
2019-04-25T04:06:53.786Z,8.58
2019-04-25T04:07:57.401Z,8.59
2019-04-25T04:09:00.089Z,8.59
2019-04-25T04:10:04.540Z,8.56
2019-04-25T04:11:10.194Z,8.52
2019-04-25T04:12:14.474Z,8.60
2019-04-25T04:13:17.568Z,8.61
2019-04-25T04:14:20.886Z,8.61
2019-04-25T04:15:25.079Z,8.54
2019-04-25T04:16:34.224Z,8.60
2019-04-25T04:17:58.647Z,8.63
2019-04-25T04:19:01.753Z,8.63
2019-04-25T04:20:41.494Z,8.67
2019-04-25T04:22:05.521Z,8.66
2019-04-25T04:23:16.437Z,8.66
2019-04-25T04:24:34.053Z,8.63
2019-04-25T04:25:36.635Z,8.65
2019-04-25T04:26:40.174Z,8.65
2019-04-25T04:27:43.798Z,8.75
2019-04-25T04:28:46.545Z,8.76
2019-04-25T04:29:49.169Z,8.73
2019-04-25T04:30:51.803Z,8.73
2019-04-25T04:31:55.199Z,8.70
2019-04-25T04:32:58.282Z,8.62
2019-04-25T04:34:00.942Z,8.61
2019-04-25T04:35:03.561Z,8.60
2019-04-25T04:36:07.302Z,8.63
2019-04-25T04:37:14.829Z,8.61
2019-04-25T04:38:18.143Z,8.68
2019-04-25T04:39:20.818Z,8.65
2019-04-25T04:40:24.250Z,8.72
2019-04-25T04:41:27.683Z,8.69
2019-04-25T04:42:30.407Z,8.69
2019-04-25T04:43:35.703Z,8.72
2019-04-25T04:44:38.331Z,8.67
2019-04-25T04:45:43.876Z,8.64
2019-04-25T04:46:45.367Z,8.62
2019-04-25T04:47:48.506Z,8.60
2019-04-25T04:48:51.141Z,8.64
2019-04-25T04:49:57.109Z,8.74
2019-04-25T04:50:59.729Z,8.65
2019-04-25T04:52:11.600Z,8.66
2019-04-25T04:53:17.264Z,8.65
2019-04-25T04:54:23.099Z,8.63
2019-04-25T04:55:26.290Z,8.63
2019-04-25T04:56:29.365Z,8.62
2019-04-25T04:57:35.805Z,8.61
2019-04-25T04:58:37.339Z,8.53
2019-04-25T04:59:43.856Z,8.48
2019-04-25T05:00:46.772Z,8.58
2019-04-25T05:02:16.016Z,8.65
2019-04-25T05:03:34.216Z,8.67
2019-04-25T05:05:04.711Z,8.68
2019-04-25T05:06:14.857Z,8.64
2019-04-25T05:07:37.057Z,8.75
2019-04-25T05:08:44.067Z,8.70
2019-04-25T05:09:47.368Z,8.70
2019-04-25T05:10:50.215Z,8.67
2019-04-25T05:11:54.019Z,8.69
2019-04-25T05:12:56.687Z,8.79
2019-04-25T05:14:00.932Z,8.90
2019-04-25T05:15:03.814Z,8.90
2019-04-25T05:16:06.572Z,8.89
2019-04-25T05:17:09.338Z,8.87
2019-04-25T05:18:12.719Z,8.93
2019-04-25T05:19:18.112Z,9.04
2019-04-25T05:20:21.047Z,9.04
2019-04-25T05:21:25.130Z,9.07
2019-04-25T05:22:27.958Z,9.07
2019-04-25T05:23:30.581Z,9.19
2019-04-25T05:24:33.883Z,9.25
2019-04-25T05:25:36.673Z,9.32
2019-04-25T05:26:40.771Z,9.32
2019-04-25T05:28:00.108Z,9.45
2019-04-25T05:28:57.425Z,9.46
2019-04-25T05:30:00.647Z,9.51
2019-04-25T05:44:10.539Z,9.91
2019-04-25T05:45:15.114Z,10.03
2019-04-25T05:46:17.716Z,10.06
2019-04-25T05:47:22.565Z,10.06
2019-04-25T05:48:26.317Z,10.22
2019-04-25T05:49:29.555Z,10.29
2019-04-25T05:50:33.897Z,10.30
2019-04-25T05:51:36.609Z,10.25
2019-04-25T05:52:39.346Z,10.29
2019-04-25T05:53:43.322Z,10.29
2019-04-25T05:54:46.070Z,10.39
2019-04-25T05:55:49.393Z,10.37
2019-04-25T05:56:53.661Z,10.39
2019-04-25T05:57:56.618Z,10.45
2019-04-25T05:58:59.924Z,10.47
2019-04-25T06:00:03.663Z,10.49
2019-04-25T06:01:06.596Z,10.57
2019-04-25T06:02:09.765Z,10.57
2019-04-25T06:03:13.703Z,10.64
2019-04-25T06:04:19.048Z,10.66
2019-04-25T06:05:23.415Z,10.66
2019-04-25T06:06:36.585Z,10.77
2019-04-25T06:07:39.109Z,10.87
2019-04-25T06:08:48.210Z,10.87
2019-04-25T06:10:14.413Z,11.14
2019-04-25T06:11:39.881Z,11.14
2019-04-25T06:13:04.361Z,11.31
2019-04-25T06:14:11.014Z,11.31
2019-04-25T06:15:13.894Z,11.54
2019-04-25T06:16:28.273Z,11.70
2019-04-25T06:17:49.686Z,11.86
2019-04-25T06:19:13.252Z,11.87
2019-04-25T06:20:09.403Z,11.75
2019-04-25T06:21:13.329Z,11.91
2019-04-25T06:22:20.924Z,12.08
2019-04-25T06:23:40.776Z,12.27
2019-04-25T06:24:57.023Z,12.53
2019-04-25T06:25:59.714Z,12.50
2019-04-25T06:27:26.916Z,12.66
2019-04-25T06:28:35.471Z,12.66
2019-04-25T06:29:39.434Z,12.82
2019-04-25T06:30:44.215Z,12.99
2019-04-25T06:31:47.456Z,12.99
2019-04-25T06:32:50.133Z,13.10
2019-04-25T06:33:53.932Z,13.19
2019-04-25T06:34:57.112Z,12.87
2019-04-25T06:35:59.775Z,12.87
2019-04-25T06:37:04.375Z,12.58
2019-04-25T06:38:06.971Z,12.45
2019-04-25T06:39:09.693Z,12.44
2019-04-25T06:40:13.738Z,12.36
2019-04-25T06:41:16.685Z,12.36
2019-04-25T06:42:23.049Z,12.42
2019-04-25T06:43:30.148Z,12.48
2019-04-25T06:44:38.425Z,12.52
2019-04-25T06:46:00.437Z,12.45
2019-04-25T06:47:21.179Z,12.52
2019-04-25T06:48:43.335Z,12.62
2019-04-25T06:49:46.532Z,12.62
2019-04-25T06:50:49.290Z,12.72
2019-04-25T06:51:54.611Z,12.76
2019-04-25T06:52:57.761Z,12.63
2019-04-25T06:54:03.397Z,12.70
2019-04-25T06:55:06.161Z,12.70
2019-04-25T06:56:08.794Z,12.78
2019-04-25T06:57:11.500Z,12.95
2019-04-25T06:58:14.630Z,12.95
2019-04-25T06:59:17.722Z,12.66
2019-04-25T07:00:22.432Z,12.64
2019-04-25T07:01:26.689Z,12.67
2019-04-25T07:02:33.572Z,12.60
2019-04-25T07:03:36.932Z,12.57
2019-04-25T07:04:41.715Z,12.58
2019-04-25T07:05:45.040Z,12.58
2019-04-25T07:06:49.455Z,12.48
2019-04-25T07:07:55.193Z,12.48
2019-04-25T07:09:03.100Z,12.48
2019-04-25T07:10:05.917Z,12.61
2019-04-25T07:11:08.643Z,12.75
2019-04-25T07:12:14.029Z,12.69
2019-04-25T07:13:16.793Z,12.80
2019-04-25T07:14:20.055Z,12.60
2019-04-25T07:15:24.731Z,12.60
2019-04-25T07:16:27.690Z,12.51
2019-04-25T07:17:30.629Z,12.46
2019-04-25T07:18:39.065Z,12.50
2019-04-25T07:19:54.151Z,12.50
2019-04-25T07:20:58.269Z,12.61
2019-04-25T07:22:00.901Z,12.68
2019-04-25T07:23:04.358Z,12.69
2019-04-25T07:24:07.259Z,12.72
2019-04-25T07:25:13.222Z,12.79
2019-04-25T07:26:39.454Z,12.63
2019-04-25T07:28:07.256Z,12.62
2019-04-25T07:29:29.026Z,12.62
2019-04-25T07:30:49.981Z,12.66
2019-04-25T07:32:20.069Z,12.71
2019-04-25T07:33:26.168Z,12.71
2019-04-25T07:34:29.299Z,13.01
2019-04-25T07:35:33.767Z,13.28
2019-04-25T07:36:37.348Z,13.29
2019-04-25T07:37:55.042Z,13.27
2019-04-25T07:39:07.580Z,13.63
2019-04-25T07:40:04.134Z,14.02
2019-04-25T07:41:09.777Z,14.45
2019-04-25T07:42:16.276Z,14.44
2019-04-25T07:43:23.427Z,14.04
2019-04-25T07:44:38.221Z,13.77
2019-04-25T07:45:34.572Z,13.73
2019-04-25T07:46:39.487Z,13.73
2019-04-25T07:47:44.117Z,14.21
2019-04-25T07:48:47.425Z,14.21
2019-04-25T07:49:50.719Z,14.72
2019-04-25T07:50:54.161Z,14.42
2019-04-25T07:51:57.355Z,14.62
2019-04-25T07:53:00.503Z,14.73
2019-04-25T07:54:04.523Z,14.66
2019-04-25T07:55:08.132Z,14.66
2019-04-25T07:56:11.966Z,14.17
2019-04-25T07:57:17.215Z,14.17
2019-04-25T07:58:20.677Z,14.39
2019-04-25T07:59:23.929Z,14.90
2019-04-25T08:00:29.668Z,14.90
2019-04-25T08:01:33.519Z,14.75
2019-04-25T08:02:37.526Z,14.45
2019-04-25T08:03:43.899Z,14.64
2019-04-25T08:04:46.713Z,14.64
2019-04-25T08:05:51.027Z,14.66
2019-04-25T08:06:54.964Z,14.66
2019-04-25T08:07:57.733Z,14.83
2019-04-25T08:09:00.526Z,14.93
2019-04-25T08:10:05.013Z,15.01
2019-04-25T08:11:08.026Z,15.33
2019-04-25T08:12:11.291Z,15.40
2019-04-25T08:13:14.395Z,15.59
2019-04-25T08:14:25.772Z,15.67
2019-04-25T08:15:40.912Z,15.67
2019-04-25T08:16:45.099Z,16.57
2019-04-25T08:18:17.280Z,15.93
2019-04-25T08:19:20.201Z,15.92
2019-04-25T08:20:23.667Z,16.11
2019-04-25T08:21:26.492Z,16.11
2019-04-25T08:22:30.285Z,15.86
2019-04-25T08:23:36.690Z,15.86
2019-04-25T08:24:39.112Z,15.88
2019-04-25T08:25:43.284Z,15.38
2019-04-25T08:26:50.026Z,15.50
2019-04-25T08:27:53.551Z,15.50
2019-04-25T08:28:58.364Z,15.33
2019-04-25T08:30:04.238Z,15.33
2019-04-25T08:31:07.026Z,15.60
2019-04-25T08:32:11.129Z,15.61
2019-04-25T08:33:14.013Z,15.61
2019-04-25T08:34:17.651Z,15.55
2019-04-25T08:35:21.582Z,15.71
2019-04-25T08:36:31.194Z,15.71
2019-04-25T08:37:34.431Z,16.17
2019-04-25T08:38:38.220Z,16.17
2019-04-25T08:39:45.222Z,16.17
2019-04-25T08:40:48.670Z,16.30
2019-04-25T08:41:53.743Z,16.30
2019-04-25T08:42:56.764Z,15.97
2019-04-25T08:44:06.751Z,15.93
2019-04-25T08:45:09.632Z,15.86
2019-04-25T08:46:14.009Z,15.94
2019-04-25T08:47:17.003Z,15.85
2019-04-25T08:48:23.804Z,15.85
2019-04-25T08:49:45.740Z,15.85
2019-04-25T08:50:58.106Z,16.19
2019-04-25T08:52:01.084Z,16.23
2019-04-25T08:53:05.423Z,16.23
2019-04-25T08:54:18.774Z,15.96
2019-04-25T08:55:39.043Z,15.76
2019-04-25T08:56:42.446Z,15.65
2019-04-25T08:58:03.723Z,15.65
2019-04-25T08:59:37.308Z,15.92
2019-04-25T09:00:44.704Z,15.23
2019-04-25T09:02:06.632Z,15.35
2019-04-25T09:03:14.309Z,15.35
2019-04-25T09:04:38.030Z,15.92
2019-04-25T09:05:45.964Z,15.94
2019-04-25T09:06:53.542Z,15.86
2019-04-25T09:07:56.000Z,15.87
2019-04-25T09:09:00.681Z,16.08
2019-04-25T09:10:06.647Z,16.08
2019-04-25T09:11:09.465Z,15.93
2019-04-25T09:12:13.945Z,15.92
2019-04-25T09:13:20.018Z,15.92
2019-04-25T09:14:22.664Z,16.03
2019-04-25T09:15:26.079Z,16.10
2019-04-25T09:16:28.991Z,16.10
2019-04-25T09:17:35.842Z,15.42
2019-04-25T09:18:39.002Z,15.42
2019-04-25T09:19:42.044Z,15.36
2019-04-25T09:20:46.596Z,15.36
2019-04-25T09:21:49.718Z,15.19
2019-04-25T09:22:54.266Z,15.14
2019-04-25T09:23:57.223Z,15.10
2019-04-25T09:25:00.385Z,15.10
2019-04-25T09:26:06.250Z,15.20
2019-04-25T09:27:10.190Z,15.22
2019-04-25T09:28:20.409Z,15.33
2019-04-25T09:29:23.553Z,15.33
2019-04-25T09:30:26.618Z,15.44
2019-04-25T09:31:29.386Z,15.44
2019-04-25T09:32:35.682Z,15.17
2019-04-25T09:33:39.137Z,15.17
2019-04-25T09:34:43.740Z,15.17
2019-04-25T09:35:46.967Z,15.10
2019-04-25T09:36:49.827Z,15.17
2019-04-25T09:37:53.551Z,15.14
2019-04-25T09:38:59.631Z,15.14
2019-04-25T09:40:11.714Z,15.11
2019-04-25T09:41:16.202Z,15.13
2019-04-25T09:42:21.127Z,15.13
2019-04-25T09:43:24.476Z,15.33
2019-04-25T09:44:35.930Z,15.37
2019-04-25T09:45:53.273Z,15.37
2019-04-25T09:46:56.639Z,15.40
2019-04-25T09:48:04.674Z,15.40
2019-04-25T09:49:23.719Z,15.40
2019-04-25T09:50:38.661Z,15.40
2019-04-25T09:51:48.304Z,15.52
2019-04-25T09:52:54.160Z,15.46
2019-04-25T09:54:07.833Z,15.43
2019-04-25T09:55:36.095Z,15.39
2019-04-25T09:56:46.065Z,15.39
2019-04-25T09:57:56.357Z,15.28
2019-04-25T10:00:57.589Z,15.28
2019-04-25T10:02:05.173Z,15.36
2019-04-25T10:03:05.856Z,15.29
2019-04-25T10:04:09.108Z,15.21
2019-04-25T10:05:11.907Z,15.21
2019-04-25T10:06:14.844Z,14.88
2019-04-25T10:07:17.541Z,14.91
2019-04-25T10:08:20.934Z,14.76
2019-04-25T10:09:24.707Z,14.76
2019-04-25T10:10:27.814Z,14.86
2019-04-25T10:11:30.647Z,14.89
2019-04-25T10:12:34.176Z,14.89
2019-04-25T10:13:37.604Z,14.84
2019-04-25T10:14:49.155Z,14.87
2019-04-25T10:15:54.540Z,14.95
2019-04-25T10:17:00.304Z,15.03
2019-04-25T10:18:03.781Z,15.00
2019-04-25T10:19:13.272Z,15.02
2019-04-25T10:20:33.271Z,15.02
2019-04-25T10:21:34.644Z,14.90
2019-04-25T10:22:38.074Z,14.93
2019-04-25T10:23:43.619Z,14.93
2019-04-25T10:24:57.594Z,15.07
2019-04-25T10:25:53.815Z,14.98
2019-04-25T10:27:03.738Z,14.98
2019-04-25T10:28:06.493Z,15.05
2019-04-25T10:29:09.343Z,15.01
2019-04-25T10:43:04.027Z,15.55
2019-04-25T10:44:08.510Z,15.56
2019-04-25T10:45:22.872Z,15.56
2019-04-25T10:46:19.067Z,15.71
2019-04-25T10:47:21.759Z,15.73
2019-04-25T10:48:25.389Z,15.82
2019-04-25T10:49:28.616Z,15.96
2019-04-25T10:50:35.644Z,16.21
2019-04-25T10:51:40.835Z,16.54
2019-04-25T10:52:45.806Z,16.73
2019-04-25T10:53:48.821Z,16.98
2019-04-25T10:54:52.619Z,16.92
2019-04-25T10:55:56.992Z,16.86
2019-04-25T10:57:03.230Z,16.86
2019-04-25T10:58:08.288Z,17.01
2019-04-25T10:59:11.015Z,17.10
2019-04-25T11:00:15.957Z,17.28
2019-04-25T11:01:19.164Z,17.22
2019-04-25T11:02:23.600Z,17.12
2019-04-25T11:03:48.812Z,17.12
2019-04-25T11:04:57.921Z,17.59
2019-04-25T11:06:00.827Z,17.28
2019-04-25T11:07:04.144Z,17.37
2019-04-25T11:08:10.664Z,17.41
2019-04-25T11:09:13.841Z,17.43
2019-04-25T11:10:17.672Z,17.43
2019-04-25T11:11:29.852Z,17.45
2019-04-25T11:12:34.765Z,17.45
2019-04-25T11:13:37.799Z,17.45
2019-04-25T11:14:40.966Z,17.69
2019-04-25T11:15:44.904Z,17.71
2019-04-25T11:16:48.382Z,17.71
2019-04-25T11:17:51.398Z,18.08
2019-04-25T11:18:54.929Z,18.19
2019-04-25T11:19:59.959Z,18.20
2019-04-25T11:21:06.113Z,18.25
2019-04-25T11:22:09.721Z,18.25
2019-04-25T11:23:16.006Z,18.66
2019-04-25T11:24:18.404Z,18.66
2019-04-25T11:25:21.927Z,18.69
2019-04-25T11:26:27.562Z,18.65
2019-04-25T11:27:36.243Z,18.65
2019-04-25T11:28:42.516Z,18.85
2019-04-25T11:29:48.577Z,18.55
2019-04-25T11:30:53.929Z,18.64
2019-04-25T11:31:56.910Z,18.64
2019-04-25T11:33:00.047Z,18.89
2019-04-25T11:34:04.239Z,19.37
2019-04-25T11:35:07.507Z,19.37
2019-04-25T11:36:10.799Z,18.84
2019-04-25T11:37:14.686Z,18.84
2019-04-25T11:38:24.025Z,19.13
2019-04-25T11:39:46.051Z,19.13
2019-04-25T11:41:03.957Z,19.16
2019-04-25T11:42:13.127Z,19.14
2019-04-25T11:43:28.135Z,19.14
2019-04-25T11:44:39.002Z,19.26
2019-04-25T11:45:42.542Z,19.26
2019-04-25T11:46:47.042Z,19.63
2019-04-25T11:47:49.808Z,19.58
2019-04-25T11:48:54.360Z,19.25
2019-04-25T11:50:03.953Z,18.99
2019-04-25T11:51:07.099Z,18.99
2019-04-25T11:52:26.887Z,19.33
2019-04-25T11:53:24.749Z,19.28
2019-04-25T11:54:31.787Z,19.26
2019-04-25T11:55:35.066Z,19.39
2019-04-25T11:56:40.258Z,19.40
2019-04-25T11:57:49.223Z,19.43
2019-04-25T11:58:51.491Z,19.64
2019-04-25T11:59:55.711Z,19.64
2019-04-25T12:01:01.046Z,19.84
2019-04-25T12:02:04.644Z,19.51
2019-04-25T12:03:08.742Z,19.65
2019-04-25T12:04:13.161Z,19.74
2019-04-25T12:05:16.654Z,19.78
2019-04-25T12:06:19.507Z,19.60
2019-04-25T12:07:24.670Z,19.39
2019-04-25T12:08:27.505Z,19.34
2019-04-25T12:09:33.768Z,18.80
2019-04-25T12:10:37.703Z,19.02
2019-04-25T12:11:40.558Z,19.05
2019-04-25T12:12:47.205Z,19.05
2019-04-25T12:13:49.247Z,19.18
2019-04-25T12:14:51.971Z,19.04
2019-04-25T12:16:00.983Z,19.06
2019-04-25T12:17:03.929Z,19.21
2019-04-25T12:18:06.791Z,19.21
2019-04-25T12:19:09.775Z,19.31
2019-04-25T12:20:14.129Z,19.11
2019-04-25T12:21:19.628Z,19.21
2019-04-25T12:22:26.064Z,19.21
2019-04-25T12:23:29.268Z,19.10
2019-04-25T12:24:34.825Z,20.05
2019-04-25T12:25:37.693Z,20.05
2019-04-25T12:26:40.592Z,20.59
2019-04-25T12:27:48.161Z,20.59
2019-04-25T12:28:54.730Z,20.19
2019-04-25T12:29:55.150Z,20.19
2019-04-25T12:30:59.586Z,19.65
2019-04-25T12:32:03.923Z,19.12
2019-04-25T12:33:19.133Z,19.54
2019-04-25T12:34:16.952Z,19.77
2019-04-25T12:35:24.209Z,19.85
2019-04-25T12:36:27.680Z,19.85
2019-04-25T12:37:30.643Z,19.58
2019-04-25T12:38:35.349Z,19.87
2019-04-25T12:39:38.666Z,19.67
2019-04-25T12:40:44.570Z,20.23
2019-04-25T12:41:49.050Z,20.19
2019-04-25T12:42:52.206Z,19.61
2019-04-25T12:44:11.953Z,19.63
2019-04-25T12:45:37.080Z,19.85
2019-04-25T12:46:43.679Z,20.27
2019-04-25T12:47:48.944Z,20.32
2019-04-25T12:48:51.832Z,20.77
2019-04-25T12:49:56.042Z,20.38
2019-04-25T12:50:59.333Z,20.14
2019-04-25T12:52:02.645Z,20.41
2019-04-25T12:53:05.350Z,20.33
2019-04-25T12:54:08.297Z,20.07
2019-04-25T12:55:13.822Z,20.00
2019-04-25T12:56:20.359Z,20.14
2019-04-25T12:57:22.009Z,20.14
2019-04-25T12:58:29.280Z,19.89
2019-04-25T12:59:35.428Z,20.22
2019-04-25T13:00:47.933Z,19.87
2019-04-25T13:01:43.449Z,19.87
2019-04-25T13:02:49.632Z,20.14
2019-04-25T13:03:54.361Z,20.15
2019-04-25T13:05:05.559Z,20.08
2019-04-25T13:06:10.628Z,20.08
2019-04-25T13:07:17.360Z,19.94
2019-04-25T13:08:24.251Z,19.77
2019-04-25T13:09:27.345Z,19.77
2019-04-25T13:10:30.723Z,19.83
2019-04-25T13:11:35.211Z,19.77
2019-04-25T13:12:38.085Z,19.79
2019-04-25T13:13:43.561Z,19.97
2019-04-25T13:14:46.344Z,19.90
2019-04-25T13:15:50.941Z,19.73
2019-04-25T13:16:53.829Z,19.73
2019-04-25T13:17:59.576Z,19.98
2019-04-25T13:19:12.673Z,20.05
2019-04-25T13:20:07.578Z,19.76
2019-04-25T13:21:13.669Z,19.76
2019-04-25T13:22:17.175Z,19.75
2019-04-25T13:23:20.429Z,19.79
2019-04-25T13:24:28.393Z,19.79
2019-04-25T13:25:31.052Z,19.66
2019-04-25T13:26:39.656Z,19.50
2019-04-25T13:27:56.336Z,19.50
2019-04-25T13:29:17.290Z,20.01
2019-04-25T13:30:31.030Z,19.95
2019-04-25T13:31:58.578Z,20.02
2019-04-25T13:33:18.516Z,20.02
2019-04-25T13:34:36.056Z,20.23
2019-04-25T13:35:35.899Z,20.11
2019-04-25T13:36:38.827Z,20.16
2019-04-25T13:37:44.006Z,20.16
2019-04-25T13:38:49.430Z,20.47
2019-04-25T13:39:54.057Z,20.78
2019-04-25T13:40:59.559Z,20.83
2019-04-25T13:42:03.720Z,20.73
2019-04-25T13:43:11.450Z,20.73
2019-04-25T13:44:17.482Z,20.85
2019-04-25T13:45:20.598Z,20.55
2019-04-25T13:46:27.717Z,20.34
2019-04-25T13:47:31.755Z,20.42
2019-04-25T13:48:35.640Z,20.38
2019-04-25T13:49:38.901Z,20.28
2019-04-25T13:50:42.271Z,20.18
2019-04-25T13:51:46.426Z,20.18
2019-04-25T13:52:50.078Z,20.07
2019-04-25T13:53:54.576Z,20.05
2019-04-25T13:55:04.018Z,20.06
2019-04-25T13:56:07.806Z,20.18
2019-04-25T13:57:13.819Z,20.13
2019-04-25T13:58:16.910Z,20.13
2019-04-25T13:59:19.778Z,20.28
2019-04-25T14:00:26.034Z,20.47
2019-04-25T14:01:29.710Z,20.47
2019-04-25T14:02:33.525Z,20.75
2019-04-25T14:03:36.699Z,20.41
2019-04-25T14:04:39.613Z,20.48
2019-04-25T14:05:43.857Z,20.71
2019-04-25T14:06:47.298Z,20.57
2019-04-25T14:07:50.462Z,20.55
2019-04-25T14:08:53.485Z,20.55
2019-04-25T14:09:56.764Z,20.45
2019-04-25T14:11:01.226Z,20.45
2019-04-25T14:12:05.028Z,20.44
2019-04-25T14:13:08.433Z,20.57
2019-04-25T14:14:11.294Z,20.24
2019-04-25T14:15:17.703Z,20.27
2019-04-25T14:16:48.517Z,20.33
2019-04-25T14:18:04.840Z,20.74
2019-04-25T14:19:33.584Z,20.86
2019-04-25T14:20:44.225Z,20.86
2019-04-25T14:21:49.597Z,20.99
2019-04-25T14:22:54.841Z,20.57
2019-04-25T14:23:59.569Z,20.70
2019-04-25T14:25:03.890Z,20.70
2019-04-25T14:26:13.114Z,20.67
2019-04-25T14:27:16.707Z,21.00
2019-04-25T14:28:19.899Z,20.67
2019-04-25T14:29:26.167Z,20.74
2019-04-25T14:30:34.305Z,20.74
2019-04-25T14:31:45.564Z,20.93
2019-04-25T14:32:49.172Z,21.14
2019-04-25T14:33:51.864Z,21.32
2019-04-25T14:34:55.342Z,21.28
2019-04-25T14:35:58.520Z,21.28
2019-04-25T14:37:01.193Z,21.47
2019-04-25T14:38:04.118Z,21.47
2019-04-25T14:39:08.323Z,21.79
2019-04-25T14:40:11.188Z,21.81
2019-04-25T14:41:14.322Z,22.00
2019-04-25T14:42:17.843Z,22.00
2019-04-25T14:43:21.354Z,22.93
2019-04-25T14:44:31.228Z,22.34
2019-04-25T14:45:43.034Z,22.34
2019-04-25T14:46:40.348Z,21.81
2019-04-25T14:47:43.130Z,21.81
2019-04-25T14:48:46.160Z,20.82
2019-04-25T14:49:51.441Z,20.58
2019-04-25T14:50:54.245Z,20.55
2019-04-25T14:51:57.085Z,20.89